Time;durP1;ratioP1;P1;durP2;ratioP2;P2;SDS_P1;SDS_P2;PMS_P1;PMS_P2;Temp;Humidity;BMP_temperature;BMP_pressure;BME280_temperature;BME280_humidity;BME280_pressure;Samples;Min_cycle;Max_cycle;Signal;HPM_P1;HPM_P2
2022/12/11 00:01:21;;;;;;;20.70;14.83;;;-0.30;1.00;;;;;;6217416;28;20238;-53
2022/12/11 00:04:24;;;;;;;18.97;14.87;;;-0.50;1.00;;;;;;6236884;28;20246;-51
2022/12/11 00:07:27;;;;;;;21.63;15.73;;;-0.40;1.00;;;;;;6238578;28;20246;-52
2022/12/11 00:10:30;;;;;;;20.40;16.20;;;-0.40;1.00;;;;;;6222849;28;20675;-51
2022/12/11 00:13:41;;;;;;;15.60;13.77;;;-0.40;1.00;;;;;;6213496;28;20783;-51
2022/12/11 00:16:44;;;;;;;16.37;14.60;;;-0.50;1.00;;;;;;6212052;28;20243;-52
2022/12/11 00:19:47;;;;;;;17.77;14.93;;;-0.50;1.00;;;;;;6212868;28;20278;-52
2022/12/11 00:22:50;;;;;;;17.47;14.87;;;-0.30;1.00;;;;;;6223012;28;20231;-52
2022/12/11 00:25:53;;;;;;;18.97;14.53;;;-0.40;1.00;;;;;;6213474;28;20754;-52
2022/12/11 00:28:57;;;;;;;18.67;15.53;;;-0.40;1.00;;;;;;6213136;28;20300;-51
2022/12/11 00:32:00;;;;;;;19.87;15.63;;;-0.40;1.00;;;;;;6233459;28;20227;-51
2022/12/11 00:35:04;;;;;;;18.23;15.07;;;-0.40;1.00;;;;;;6236556;28;20300;-52
2022/12/11 00:38:07;;;;;;;20.93;15.70;;;-0.30;1.00;;;;;;6234203;28;20242;-52
2022/12/11 00:41:10;;;;;;;22.23;16.73;;;-0.30;1.00;;;;;;6232794;28;20242;-51
2022/12/11 00:44:15;;;;;;;21.63;16.23;;;-0.30;1.00;;;;;;6234706;28;20498;-51
2022/12/11 00:47:18;;;;;;;22.40;15.67;;;-0.20;1.00;;;;;;6227633;28;20258;-52
2022/12/11 00:50:21;;;;;;;24.53;16.70;;;-0.40;1.00;;;;;;6237372;28;20230;-52
2022/12/11 00:53:24;;;;;;;20.20;15.17;;;-0.30;1.00;;;;;;6237515;28;20389;-52
2022/12/11 00:56:27;;;;;;;19.97;15.40;;;-0.30;1.00;;;;;;6223796;28;20247;-51
2022/12/11 00:59:31;;;;;;;18.57;15.77;;;-0.40;1.00;;;;;;6211757;28;20246;-52
2022/12/11 01:02:34;;;;;;;20.03;15.87;;;-0.40;1.00;;;;;;6232433;28;20274;-53
2022/12/11 01:05:37;;;;;;;18.43;15.40;;;-0.50;1.00;;;;;;6223660;28;20356;-51
2022/12/11 01:08:40;;;;;;;18.17;15.07;;;-0.30;1.00;;;;;;6230084;28;20250;-52
2022/12/11 01:11:43;;;;;;;17.33;14.53;;;-0.20;1.00;;;;;;6231032;28;20241;-52
2022/12/11 01:14:47;;;;;;;22.03;14.83;;;-0.40;1.00;;;;;;6213790;28;20577;-52
2022/12/11 01:17:50;;;;;;;21.10;15.27;;;-0.30;1.00;;;;;;6235619;28;20242;-52
2022/12/11 01:20:59;;;;;;;22.17;16.03;;;-0.20;1.00;;;;;;6227202;28;20610;-52
2022/12/11 01:24:02;;;;;;;18.47;14.57;;;-0.40;1.00;;;;;;6211562;28;20231;-52
2022/12/11 01:27:05;;;;;;;20.17;15.67;;;-0.20;1.00;;;;;;6211501;28;20599;-52
2022/12/11 01:30:11;;;;;;;18.57;15.43;;;-0.40;1.00;;;;;;6211025;28;20235;-51
2022/12/11 01:33:13;;;;;;;20.80;14.90;;;-0.20;1.00;;;;;;6233814;28;20227;-51
2022/12/11 01:36:18;;;;;;;19.07;14.77;;;-0.50;1.00;;;;;;6235211;28;20249;-52
2022/12/11 01:39:21;;;;;;;22.20;16.20;;;-0.30;1.00;;;;;;6229673;28;20245;-52
2022/12/11 01:42:25;;;;;;;20.40;15.30;;;-0.10;1.00;;;;;;6225693;28;20240;-51
2022/12/11 01:45:43;;;;;;;20.27;14.97;;;-0.20;1.00;;;;;;6234148;28;20250;-51
2022/12/11 01:48:47;;;;;;;18.77;16.03;;;-0.60;1.00;;;;;;6225117;28;20228;-52
2022/12/11 01:51:53;;;;;;;20.57;16.33;;;-0.50;1.00;;;;;;6211114;28;20231;-52
2022/12/11 01:54:56;;;;;;;22.70;15.63;;;-0.40;1.00;;;;;;6211274;28;20239;-52
2022/12/11 01:58:00;;;;;;;20.63;16.00;;;-0.40;1.00;;;;;;6210890;28;20466;-52
2022/12/11 02:01:04;;;;;;;20.80;16.23;;;-0.20;1.00;;;;;;6215744;28;20235;-52
2022/12/11 02:04:09;;;;;;;23.63;16.73;;;-0.50;1.00;;;;;;6234321;28;20604;-52
2022/12/11 02:07:12;;;;;;;23.60;16.00;;;-0.40;1.00;;;;;;6233034;28;20370;-51
2022/12/11 02:10:16;;;;;;;21.57;16.67;;;-0.40;1.00;;;;;;6221135;28;20236;-52
2022/12/11 02:13:26;;;;;;;22.87;16.90;;;-0.20;1.00;;;;;;6210061;28;20238;-51
2022/12/11 02:16:38;;;;;;;21.97;15.80;;;-0.40;1.00;;;;;;6222798;28;20325;-51
2022/12/11 02:19:53;;;;;;;20.83;15.87;;;-0.30;1.00;;;;;;6234168;28;20227;-55
2022/12/11 02:23:20;;;;;;;20.80;16.27;;;-0.40;1.00;;;;;;6218889;28;20720;-51
2022/12/11 02:26:37;;;;;;;18.17;14.67;;;-0.30;1.00;;;;;;6209804;28;20259;-52
2022/12/11 02:29:49;;;;;;;23.67;16.67;;;-0.60;1.00;;;;;;6209377;28;20243;-52
2022/12/11 02:32:55;;;;;;;22.67;17.00;;;-0.30;1.00;;;;;;6224020;28;20234;-52
2022/12/11 02:36:00;;;;;;;29.10;19.23;;;-0.40;1.00;;;;;;6234020;28;20624;-52
2022/12/11 02:39:05;;;;;;;26.70;18.40;;;-0.30;1.00;;;;;;6230477;28;20249;-51
2022/12/11 02:42:11;;;;;;;27.77;17.63;;;-0.20;1.00;;;;;;6234693;28;20235;-52
2022/12/11 02:45:17;;;;;;;24.03;17.57;;;-0.40;1.00;;;;;;6234144;28;20881;-51
2022/12/11 02:48:22;;;;;;;25.80;18.17;;;-0.40;1.00;;;;;;6216795;28;20238;-52
2022/12/11 02:51:30;;;;;;;27.03;17.07;;;-0.30;1.00;;;;;;6209126;28;20257;-51
2022/12/11 02:54:38;;;;;;;23.60;17.10;;;-0.40;1.00;;;;;;6208636;28;20236;-51
2022/12/11 02:57:45;;;;;;;26.13;17.77;;;-0.40;1.00;;;;;;6208974;28;20751;-51
2022/12/11 03:00:50;;;;;;;25.27;17.77;;;-0.40;1.00;;;;;;6211978;28;20265;-52
2022/12/11 03:03:53;;;;;;;23.50;17.10;;;-0.30;1.00;;;;;;6231761;28;20238;-53
2022/12/11 03:07:01;;;;;;;22.53;16.93;;;-0.40;1.00;;;;;;6233007;28;20436;-51
2022/12/11 03:10:06;;;;;;;24.07;16.80;;;-0.40;1.00;;;;;;6221734;28;20239;-52
2022/12/11 03:13:10;;;;;;;27.00;17.53;;;-0.20;1.00;;;;;;6213294;28;20245;-51
2022/12/11 03:16:24;;;;;;;23.03;16.47;;;-0.50;1.00;;;;;;6219954;28;20235;-52
2022/12/11 03:19:33;;;;;;;24.90;17.13;;;-0.20;1.00;;;;;;6207977;28;20270;-52
2022/12/11 03:22:43;;;;;;;24.77;17.53;;;-0.30;1.00;;;;;;6211346;28;20246;-53
2022/12/11 03:25:53;;;;;;;25.70;17.23;;;-0.20;1.00;;;;;;6209767;28;20280;-52
2022/12/11 03:29:00;;;;;;;22.73;16.93;;;-0.30;1.00;;;;;;6200667;28;20231;-52
2022/12/11 03:32:09;;;;;;;23.77;17.27;;;-0.40;1.00;;;;;;6215714;28;20230;-52
2022/12/11 03:35:16;;;;;;;21.30;16.53;;;-0.40;1.00;;;;;;6233146;28;20238;-51
2022/12/11 03:38:24;;;;;;;21.57;16.03;;;-0.30;1.00;;;;;;6230596;28;20242;-51
2022/12/11 03:41:29;;;;;;;25.20;16.33;;;-0.60;1.00;;;;;;6230878;28;20643;-52
2022/12/11 03:44:34;;;;;;;24.23;16.30;;;-0.60;1.00;;;;;;6233468;28;20246;-51
2022/12/11 03:47:41;;;;;;;24.93;18.30;;;-0.50;1.00;;;;;;6209249;28;20227;-51
2022/12/11 03:50:46;;;;;;;22.13;15.90;;;-0.20;1.00;;;;;;6208837;28;20616;-51
2022/12/11 03:53:49;;;;;;;22.40;16.40;;;-0.50;1.00;;;;;;6217001;28;20443;-51
2022/12/11 03:56:56;;;;;;;23.57;16.60;;;-0.40;1.00;;;;;;6210672;28;20797;-52
2022/12/11 03:59:59;;;;;;;24.57;16.70;;;-0.40;1.00;;;;;;6208134;28;20743;-51
2022/12/11 04:03:12;;;;;;;25.73;16.47;;;-0.40;1.00;;;;;;6230077;28;20731;-52
2022/12/11 04:06:16;;;;;;;22.73;16.40;;;-0.50;1.00;;;;;;6209017;28;20250;-52
2022/12/11 04:09:19;;;;;;;24.30;16.53;;;-0.50;1.00;;;;;;6231201;28;20243;-52
2022/12/11 04:12:22;;;;;;;24.13;16.17;;;-0.30;1.00;;;;;;6213788;28;20235;-52
2022/12/11 04:15:24;;;;;;;25.10;16.37;;;-0.60;1.00;;;;;;6212828;28;20398;-51
2022/12/11 04:25:10;;;;;;;23.13;16.77;;;-0.50;1.00;;;;;;6212581;28;20231;-53
2022/12/11 04:28:13;;;;;;;24.57;17.53;;;-0.60;1.00;;;;;;6212086;28;20254;-51
2022/12/11 04:31:21;;;;;;;26.33;17.80;;;-0.60;1.00;;;;;;6205906;28;20246;-52
2022/12/11 04:34:49;;;;;;;25.90;18.47;;;-0.60;1.00;;;;;;6230137;28;20882;-51
2022/12/11 04:37:52;;;;;;;28.80;19.27;;;-0.60;1.00;;;;;;6230358;28;20647;-51
2022/12/11 04:40:59;;;;;;;22.30;16.87;;;-0.70;1.00;;;;;;6231234;28;20241;-51
2022/12/11 04:44:02;;;;;;;25.37;17.93;;;-0.80;1.00;;;;;;6232023;28;20722;-52
2022/12/11 04:47:05;;;;;;;26.60;18.43;;;-0.70;1.00;;;;;;6228491;28;20230;-51
2022/12/11 04:50:11;;;;;;;22.63;17.23;;;-0.40;1.00;;;;;;6229985;28;20226;-51
2022/12/11 04:53:14;;;;;;;24.07;17.33;;;-0.50;1.00;;;;;;6235222;28;20239;-52
2022/12/11 04:56:17;;;;;;;24.90;18.07;;;-0.40;1.00;;;;;;6236007;28;20278;-51
2022/12/11 04:59:20;;;;;;;26.63;18.07;;;-0.50;1.00;;;;;;6235104;28;20261;-52
2022/12/11 05:02:23;;;;;;;29.00;19.63;;;-0.60;1.00;;;;;;6235815;28;20390;-51
2022/12/11 05:05:28;;;;;;;28.07;17.47;;;-0.50;1.00;;;;;;6234529;28;20246;-52
2022/12/11 05:08:31;;;;;;;25.13;18.03;;;-0.60;1.00;;;;;;6230120;28;20746;-51
2022/12/11 05:11:33;;;;;;;26.63;18.17;;;-0.50;1.00;;;;;;6234672;28;20239;-51
2022/12/11 05:14:36;;;;;;;23.87;17.37;;;-0.70;1.00;;;;;;6228388;28;20249;-51
2022/12/11 05:17:39;;;;;;;26.57;17.70;;;-0.50;1.00;;;;;;6234956;28;20228;-52
2022/12/11 05:20:44;;;;;;;22.30;17.73;;;-0.70;1.00;;;;;;6225583;28;20454;-51
2022/12/11 05:23:47;;;;;;;23.90;16.83;;;-0.70;1.00;;;;;;6234894;28;20723;-51
2022/12/11 05:26:50;;;;;;;26.20;18.13;;;-0.60;1.00;;;;;;6234083;28;20235;-51
2022/12/11 05:29:53;;;;;;;25.17;17.43;;;-0.80;1.00;;;;;;6227382;28;20246;-51
2022/12/11 05:33:01;;;;;;;24.73;16.70;;;-0.80;1.00;;;;;;6232410;28;20249;-51
2022/12/11 05:36:07;;;;;;;28.87;18.33;;;-0.80;1.00;;;;;;6226399;28;20266;-51
2022/12/11 05:39:12;;;;;;;28.10;18.53;;;-0.70;1.00;;;;;;6230013;28;20231;-51
2022/12/11 05:42:14;;;;;;;25.63;18.03;;;-0.60;1.00;;;;;;6233797;28;20745;-52
2022/12/11 05:45:18;;;;;;;24.07;17.90;;;-0.50;1.00;;;;;;6233563;28;20227;-52
2022/12/11 05:48:21;;;;;;;25.03;17.73;;;-0.80;1.00;;;;;;6232696;28;20230;-52
2022/12/11 05:51:25;;;;;;;26.20;18.43;;;-0.70;1.00;;;;;;6234092;28;20755;-51
2022/12/11 05:54:28;;;;;;;25.77;18.77;;;-0.40;1.00;;;;;;6225875;28;20601;-52
2022/12/11 05:57:31;;;;;;;29.97;19.60;;;-0.80;1.00;;;;;;6228335;28;20723;-51
2022/12/11 06:00:34;;;;;;;28.60;19.20;;;-0.80;1.00;;;;;;6233585;28;20242;-52
2022/12/11 06:03:38;;;;;;;31.13;19.63;;;-0.90;1.00;;;;;;6234773;28;20235;-51
2022/12/11 06:06:43;;;;;;;29.93;20.33;;;-0.60;1.00;;;;;;6227323;28;20257;-52
2022/12/11 06:09:46;;;;;;;31.20;20.20;;;-0.60;1.00;;;;;;6226162;28;20235;-51
2022/12/11 06:12:49;;;;;;;26.40;19.00;;;-0.80;1.00;;;;;;6234292;28;20235;-52
2022/12/11 06:15:52;;;;;;;28.43;18.87;;;-0.80;1.00;;;;;;6222808;28;20242;-51
2022/12/11 06:18:56;;;;;;;28.43;18.53;;;-0.80;1.00;;;;;;6232559;28;20377;-51
2022/12/11 06:22:01;;;;;;;24.97;18.00;;;-0.60;1.00;;;;;;6231371;28;20236;-52
2022/12/11 06:25:06;;;;;;;27.57;18.33;;;-0.80;1.00;;;;;;6229876;28;20223;-52
2022/12/11 06:28:09;;;;;;;28.90;17.83;;;-0.90;1.00;;;;;;6233407;28;20230;-51
2022/12/11 06:31:12;;;;;;;28.33;18.13;;;-0.60;1.00;;;;;;6228238;28;20230;-52
2022/12/11 06:34:17;;;;;;;22.70;17.40;;;-0.80;1.00;;;;;;6231931;28;20268;-51
2022/12/11 06:37:21;;;;;;;21.67;16.10;;;-0.80;1.00;;;;;;6237875;28;20230;-51
2022/12/11 06:40:24;;;;;;;22.73;16.03;;;-0.90;1.00;;;;;;6232324;28;20227;-51
2022/12/11 06:43:27;;;;;;;22.63;17.57;;;-0.90;1.00;;;;;;6232899;28;20242;-51
2022/12/11 06:46:30;;;;;;;24.57;18.10;;;-0.80;1.00;;;;;;6235989;28;20374;-51
2022/12/11 06:49:33;;;;;;;23.30;16.37;;;-0.90;1.00;;;;;;6237387;28;20245;-54
2022/12/11 06:52:38;;;;;;;26.87;16.97;;;-0.70;1.00;;;;;;6235184;28;20245;-57
2022/12/11 06:55:41;;;;;;;20.90;16.13;;;-0.80;1.00;;;;;;6234504;28;20508;-52
2022/12/11 06:58:44;;;;;;;24.53;16.53;;;-0.90;1.00;;;;;;6225105;28;20743;-52
2022/12/11 07:01:47;;;;;;;20.00;15.23;;;-0.70;1.00;;;;;;6229414;28;20250;-51
2022/12/11 07:04:50;;;;;;;20.30;15.27;;;-0.70;1.00;;;;;;6233891;28;20618;-52
2022/12/11 07:07:58;;;;;;;23.23;15.20;;;-0.80;1.00;;;;;;6245476;28;20764;-51
2022/12/11 07:11:05;;;;;;;18.30;14.70;;;-1.10;1.00;;;;;;6228487;28;20254;-53
2022/12/11 07:14:09;;;;;;;18.67;14.07;;;-1.10;1.00;;;;;;6260370;28;20244;-52
2022/12/11 07:17:12;;;;;;;16.07;13.03;;;-1.10;1.00;;;;;;6253836;28;20253;-51
2022/12/11 07:20:16;;;;;;;14.80;13.13;;;-0.80;1.00;;;;;;6261615;28;20722;-51
2022/12/11 07:23:20;;;;;;;15.70;13.27;;;-1.00;1.00;;;;;;6258394;28;20622;-52
2022/12/11 07:26:23;;;;;;;17.83;14.13;;;-0.90;1.00;;;;;;6262473;28;20230;-51
2022/12/11 07:29:26;;;;;;;16.27;13.13;;;-1.00;1.00;;;;;;6260525;28;20248;-51
2022/12/11 07:32:29;;;;;;;14.47;12.53;;;-1.00;1.00;;;;;;6263432;28;20233;-51
2022/12/11 07:35:34;;;;;;;14.73;13.17;;;-1.20;1.00;;;;;;6260764;28;20245;-51
2022/12/11 07:38:38;;;;;;;21.03;13.17;;;-1.10;1.00;;;;;;6258166;28;20480;-51
2022/12/11 07:41:42;;;;;;;17.57;13.80;;;-1.10;1.00;;;;;;6259134;28;20238;-51
2022/12/11 07:44:45;;;;;;;17.30;13.53;;;-1.20;1.00;;;;;;6266881;28;20233;-52
2022/12/11 07:47:47;;;;;;;15.20;12.70;;;-1.00;1.00;;;;;;6273006;28;20541;-51
2022/12/11 07:50:50;;;;;;;15.00;12.40;;;-1.10;1.00;;;;;;6267866;28;20714;-53
2022/12/11 07:53:57;;;;;;;17.13;13.07;;;-1.10;1.00;;;;;;6265285;28;20242;-51
2022/12/11 07:57:00;;;;;;;18.57;13.97;;;-1.00;1.00;;;;;;6267758;28;20238;-51
2022/12/11 08:00:04;;;;;;;17.27;13.20;;;-1.00;1.00;;;;;;6258063;28;20237;-51
2022/12/11 08:03:07;;;;;;;16.13;13.80;;;-1.30;1.00;;;;;;6261902;28;20630;-52
2022/12/11 08:06:11;;;;;;;16.37;13.80;;;-1.10;1.00;;;;;;6236909;28;20707;-51
2022/12/11 08:09:16;;;;;;;15.07;12.70;;;-1.30;1.00;;;;;;6227443;28;20239;-52
2022/12/11 08:12:23;;;;;;;17.17;13.40;;;-1.10;1.00;;;;;;6234558;28;20235;-51
2022/12/11 08:15:25;;;;;;;18.23;13.90;;;-1.10;1.00;;;;;;6232285;28;20231;-52
2022/12/11 08:18:29;;;;;;;17.57;13.53;;;-1.20;1.00;;;;;;6235602;28;20623;-52
2022/12/11 08:21:32;;;;;;;17.40;13.33;;;-1.10;1.00;;;;;;6237520;28;20426;-51
2022/12/11 08:24:36;;;;;;;14.80;12.77;;;-1.20;1.00;;;;;;6235994;28;20276;-51
2022/12/11 08:27:39;;;;;;;16.83;13.23;;;-1.20;1.00;;;;;;6258282;28;20710;-52
2022/12/11 08:30:42;;;;;;;16.27;14.50;;;-1.00;1.00;;;;;;6258840;28;20240;-52
2022/12/11 08:33:46;;;;;;;16.00;13.63;;;-1.10;1.00;;;;;;6253644;28;20234;-51
2022/12/11 08:36:49;;;;;;;17.57;12.87;;;-1.00;1.00;;;;;;6253581;28;20530;-52
2022/12/11 08:39:53;;;;;;;17.33;13.73;;;-1.00;1.00;;;;;;6256959;28;20234;-51
2022/12/11 08:42:56;;;;;;;13.83;12.43;;;-0.90;1.00;;;;;;6254386;28;20237;-51
2022/12/11 08:45:59;;;;;;;16.00;13.70;;;-0.90;1.00;;;;;;6259794;28;20607;-52
2022/12/11 08:49:02;;;;;;;16.17;13.77;;;-0.90;1.00;;;;;;6259149;28;20246;-52
2022/12/11 08:52:05;;;;;;;19.93;13.77;;;-1.20;1.00;;;;;;6259342;28;20245;-51
2022/12/11 08:55:10;;;;;;;17.63;14.03;;;-0.80;1.00;;;;;;6258591;28;20234;-52
2022/12/11 08:58:13;;;;;;;14.57;13.07;;;-1.10;1.00;;;;;;6254079;28;20234;-51
2022/12/11 09:01:20;;;;;;;17.93;12.60;;;-0.80;1.00;;;;;;6259834;28;20237;-52
2022/12/11 09:04:23;;;;;;;17.50;12.80;;;-0.90;1.00;;;;;;6258791;28;20718;-53
2022/12/11 09:07:27;;;;;;;15.20;13.00;;;-0.70;1.00;;;;;;6259924;28;20242;-52
2022/12/11 09:10:31;;;;;;;15.33;12.53;;;-1.00;1.00;;;;;;6259890;28;20272;-52
2022/12/11 09:13:34;;;;;;;16.23;12.80;;;-0.60;1.00;;;;;;6257328;28;20237;-52
2022/12/11 09:16:39;;;;;;;17.60;12.97;;;-0.70;1.00;;;;;;6256670;28;20238;-51
2022/12/11 09:19:42;;;;;;;14.40;12.40;;;-0.70;1.00;;;;;;6258072;28;20303;-51
2022/12/11 09:22:45;;;;;;;15.90;12.73;;;-0.50;1.00;;;;;;6253712;28;20613;-52
2022/12/11 09:25:50;;;;;;;18.00;13.40;;;-0.70;1.00;;;;;;6250771;28;20232;-52
2022/12/11 09:28:53;;;;;;;13.20;11.90;;;-0.70;1.00;;;;;;6256686;28;20241;-53
2022/12/11 09:31:56;;;;;;;17.43;12.67;;;-0.60;1.00;;;;;;6259469;28;20245;-59
2022/12/11 09:34:59;;;;;;;16.17;12.83;;;-0.90;1.00;;;;;;6256967;28;20233;-53
2022/12/11 09:38:02;;;;;;;18.63;13.63;;;-0.70;1.00;;;;;;6256994;28;20230;-51
2022/12/11 09:41:29;;;;;;;16.70;12.80;;;-0.70;1.00;;;;;;6244534;28;20237;-52
2022/12/11 09:44:37;;;;;;;14.73;13.23;;;-1.00;1.00;;;;;;6251543;28;20234;-51
2022/12/11 09:47:44;;;;;;;15.87;13.60;;;-0.80;1.00;;;;;;6254860;28;20246;-52
2022/12/11 09:50:50;;;;;;;17.33;13.10;;;-0.80;1.00;;;;;;6254458;28;20698;-51
2022/12/11 09:53:56;;;;;;;15.43;12.87;;;-0.70;1.00;;;;;;6256679;28;20698;-52
2022/12/11 09:57:07;;;;;;;15.40;12.83;;;-0.60;1.00;;;;;;6255152;28;20604;-53
2022/12/11 10:00:24;;;;;;;14.97;12.20;;;-0.70;1.00;;;;;;6256742;28;20241;-51
2022/12/11 10:03:45;;;;;;;18.37;13.47;;;-0.50;1.00;;;;;;6254377;28;20246;-52
2022/12/11 10:06:56;;;;;;;15.00;11.83;;;-0.60;1.00;;;;;;6252903;28;20619;-52
2022/12/11 10:10:07;;;;;;;15.57;13.13;;;-0.70;1.00;;;;;;6259917;28;20710;-54
2022/12/11 10:13:25;;;;;;;18.27;13.50;;;-0.60;1.00;;;;;;6232427;28;20822;-52
2022/12/11 10:16:35;;;;;;;17.50;13.17;;;-0.50;1.00;;;;;;6254742;28;20230;-53
2022/12/11 10:19:40;;;;;;;15.00;13.40;;;-0.60;1.00;;;;;;6257791;28;20250;-52
2022/12/11 10:22:45;;;;;;;15.80;12.97;;;-0.70;1.00;;;;;;6257326;28;20245;-52
2022/12/11 10:25:53;;;;;;;16.67;12.97;;;-0.50;1.00;;;;;;6254862;28;20234;-52
2022/12/11 10:29:00;;;;;;;16.13;13.60;;;-0.50;1.00;;;;;;6258828;28;20234;-52
2022/12/11 10:32:06;;;;;;;17.87;13.60;;;-0.50;1.00;;;;;;6258192;28;20242;-52
2022/12/11 10:35:18;;;;;;;18.63;13.50;;;-0.60;1.00;;;;;;6259324;28;20255;-51
2022/12/11 10:38:26;;;;;;;15.63;13.17;;;-0.90;1.00;;;;;;6256695;28;20237;-52
2022/12/11 10:41:37;;;;;;;15.10;12.40;;;-0.60;1.00;;;;;;6254893;28;20249;-52
2022/12/11 10:44:42;;;;;;;16.73;12.87;;;-0.70;1.00;;;;;;6256765;28;20407;-52
2022/12/11 10:47:45;;;;;;;14.53;12.87;;;-0.70;1.00;;;;;;6256067;28;20399;-52
2022/12/11 10:50:58;;;;;;;14.13;12.53;;;-0.60;1.00;;;;;;6251639;28;20742;-53
2022/12/11 10:54:06;;;;;;;15.00;12.30;;;-0.60;1.00;;;;;;6257697;28;20387;-51
2022/12/11 10:57:13;;;;;;;15.33;13.73;;;-0.70;1.00;;;;;;6257712;28;20384;-52
2022/12/11 11:00:32;;;;;;;14.97;13.20;;;-0.60;1.00;;;;;;6258546;28;20655;-52
2022/12/11 11:03:41;;;;;;;20.30;12.70;;;-0.90;1.00;;;;;;6252517;28;20245;-53
2022/12/11 11:06:44;;;;;;;16.17;13.67;;;-0.70;1.00;;;;;;6258391;28;20253;-52
2022/12/11 11:09:48;;;;;;;18.87;14.80;;;-0.50;1.00;;;;;;6258358;28;20537;-52
2022/12/11 11:13:00;;;;;;;18.97;13.57;;;-0.60;1.00;;;;;;6257857;28;20690;-52
2022/12/11 11:16:08;;;;;;;17.43;14.03;;;-0.80;1.00;;;;;;6253860;28;20233;-51
2022/12/11 11:19:20;;;;;;;19.13;13.87;;;-0.70;1.00;;;;;;6260421;28;20395;-52
2022/12/11 11:22:23;;;;;;;17.33;12.80;;;-0.80;1.00;;;;;;6259290;28;20252;-51
2022/12/11 11:25:27;;;;;;;17.37;13.57;;;-0.60;1.00;;;;;;6262815;28;20447;-57
2022/12/11 11:28:36;;;;;;;16.03;13.00;;;-0.60;1.00;;;;;;6261387;28;20622;-52
2022/12/11 11:31:41;;;;;;;15.13;12.37;;;-0.50;1.00;;;;;;6261232;28;20245;-53
2022/12/11 11:34:44;;;;;;;16.87;13.23;;;-0.40;1.00;;;;;;6262109;28;20293;-52
2022/12/11 11:37:58;;;;;;;18.80;13.30;;;-0.60;1.00;;;;;;6254327;28;20237;-53
2022/12/11 11:41:11;;;;;;;17.63;14.47;;;-0.40;1.00;;;;;;6257173;28;20242;-52
2022/12/11 11:44:25;;;;;;;18.67;13.13;;;-0.30;1.00;;;;;;6261568;28;20448;-53
2022/12/11 11:47:34;;;;;;;16.83;13.00;;;-0.30;1.00;;;;;;6261232;28;20380;-52
2022/12/11 11:50:43;;;;;;;16.77;13.57;;;-0.40;1.00;;;;;;6261846;28;20242;-52
2022/12/11 11:53:49;;;;;;;21.23;14.87;;;-0.40;1.00;;;;;;6257371;28;20241;-53
2022/12/11 11:56:55;;;;;;;18.63;14.23;;;-0.40;1.00;;;;;;6259476;28;20222;-53
2022/12/11 12:00:08;;;;;;;18.43;14.50;;;-0.50;1.00;;;;;;6263902;28;20237;-53
2022/12/11 12:03:16;;;;;;;17.87;15.03;;;-0.50;1.00;;;;;;6264388;28;20234;-52
2022/12/11 12:06:30;;;;;;;16.93;13.70;;;-0.70;1.00;;;;;;6239067;28;20249;-53
2022/12/11 12:09:42;;;;;;;18.10;14.50;;;-0.40;1.00;;;;;;6238695;28;20432;-52
2022/12/11 12:12:53;;;;;;;18.63;14.10;;;-0.40;1.00;;;;;;6237037;28;20239;-53
2022/12/11 12:15:58;;;;;;;19.17;15.37;;;-0.40;1.00;;;;;;6233156;28;20242;-52
2022/12/11 12:19:12;;;;;;;16.83;13.60;;;-0.40;1.00;;;;;;6230933;28;20254;-52
2022/12/11 12:22:28;;;;;;;18.37;13.87;;;-0.30;1.00;;;;;;6262504;28;20234;-53
2022/12/11 12:25:38;;;;;;;16.70;14.17;;;-0.10;1.00;;;;;;6259836;28;20841;-52
2022/12/11 12:28:50;;;;;;;22.80;15.63;;;0.00;1.00;;;;;;6251737;28;20241;-52
2022/12/11 12:32:05;;;;;;;18.63;15.17;;;-0.10;1.00;;;;;;6232410;28;20254;-53
2022/12/11 12:35:26;;;;;;;18.33;13.23;;;0.00;1.00;;;;;;6227997;28;20246;-52
2022/12/11 12:38:40;;;;;;;19.43;14.27;;;0.00;1.00;;;;;;6230114;28;20241;-52
2022/12/11 12:41:50;;;;;;;17.13;14.60;;;-0.10;1.00;;;;;;6235036;28;20243;-52
2022/12/11 12:44:59;;;;;;;16.83;13.33;;;-0.10;1.00;;;;;;6232071;28;20246;-52
2022/12/11 12:48:02;;;;;;;16.77;13.37;;;-0.30;1.00;;;;;;6224402;28;20257;-52
2022/12/11 12:51:07;;;;;;;18.33;14.60;;;0.00;1.00;;;;;;6235020;28;20739;-53
2022/12/11 12:54:15;;;;;;;17.33;13.77;;;0.00;1.00;;;;;;6234653;28;20234;-52
2022/12/11 12:57:19;;;;;;;18.60;14.37;;;0.00;1.00;;;;;;6234921;28;20238;-52
2022/12/11 13:00:30;;;;;;;19.30;14.17;;;0.00;1.00;;;;;;6235290;28;20243;-53
2022/12/11 13:03:36;;;;;;;17.13;14.40;;;0.10;1.00;;;;;;6231386;28;20235;-53
2022/12/11 13:06:43;;;;;;;18.63;15.30;;;-0.10;1.00;;;;;;6235124;28;20242;-52
2022/12/11 13:10:00;;;;;;;20.63;14.80;;;0.00;1.00;;;;;;6234369;28;20234;-52
2022/12/11 13:13:05;;;;;;;18.60;14.13;;;0.00;1.00;;;;;;6234786;28;20243;-53
2022/12/11 13:16:24;;;;;;;17.37;14.07;;;-0.10;1.00;;;;;;6233719;28;20241;-52
2022/12/11 13:19:28;;;;;;;17.30;14.37;;;-0.10;1.00;;;;;;6232698;28;20245;-53
2022/12/11 13:22:32;;;;;;;18.33;13.83;;;0.00;1.00;;;;;;6234422;28;20239;-53
2022/12/11 13:25:48;;;;;;;18.67;15.47;;;0.00;1.00;;;;;;6234289;28;20269;-51
2022/12/11 13:28:51;;;;;;;16.57;14.40;;;0.00;1.00;;;;;;6230297;28;20246;-54
2022/12/11 13:31:58;;;;;;;20.30;13.80;;;0.10;1.00;;;;;;6229139;28;20234;-52
2022/12/11 13:35:06;;;;;;;16.17;13.47;;;0.10;1.00;;;;;;6232260;28;20295;-51
2022/12/11 13:38:18;;;;;;;18.47;14.03;;;-0.10;1.00;;;;;;6230659;28;20242;-52
2022/12/11 13:41:21;;;;;;;17.07;13.97;;;0.10;1.00;;;;;;6223584;28;20238;-52
2022/12/11 13:44:27;;;;;;;17.60;13.87;;;0.00;1.00;;;;;;6235321;28;20227;-51
2022/12/11 13:47:31;;;;;;;18.17;15.13;;;0.10;1.00;;;;;;6233793;28;20246;-52
2022/12/11 13:50:35;;;;;;;17.93;14.37;;;0.00;1.00;;;;;;6234910;28;20734;-52
2022/12/11 13:53:40;;;;;;;17.37;14.10;;;-0.10;1.00;;;;;;6230097;28;20241;-53
2022/12/11 13:56:57;;;;;;;18.00;14.43;;;0.00;1.00;;;;;;6234355;28;20483;-54
2022/12/11 14:00:00;;;;;;;15.43;13.57;;;0.00;1.00;;;;;;6230227;28;20227;-52
2022/12/11 14:03:07;;;;;;;18.70;14.87;;;0.00;1.00;;;;;;6231987;28;20517;-51
2022/12/11 14:06:12;;;;;;;17.63;13.53;;;0.00;1.00;;;;;;6233244;28;20235;-54
2022/12/11 14:09:25;;;;;;;16.23;13.67;;;0.00;1.00;;;;;;6230616;28;20242;-52
2022/12/11 14:12:30;;;;;;;16.70;14.47;;;-0.10;1.00;;;;;;6233884;28;20249;-51
2022/12/11 14:15:35;;;;;;;14.67;13.17;;;0.00;1.00;;;;;;6232627;28;20326;-52
2022/12/11 14:18:38;;;;;;;17.77;13.60;;;-0.10;1.00;;;;;;6250028;28;20241;-52
2022/12/11 14:21:41;;;;;;;19.80;14.40;;;-0.20;1.00;;;;;;6263286;28;20392;-52
2022/12/11 14:24:50;;;;;;;15.87;13.27;;;0.10;1.00;;;;;;6266700;28;20233;-55
2022/12/11 14:27:55;;;;;;;20.77;13.77;;;-0.30;1.00;;;;;;6253407;28;20261;-53
2022/12/11 14:31:00;;;;;;;18.63;14.70;;;-0.20;1.00;;;;;;6259524;28;20241;-52
2022/12/11 14:34:08;;;;;;;18.17;14.10;;;-0.30;1.00;;;;;;6228380;28;20231;-52
2022/12/11 14:37:12;;;;;;;17.57;15.27;;;-0.40;1.00;;;;;;6228009;28;20463;-53
2022/12/11 14:40:20;;;;;;;21.77;15.20;;;-0.20;1.00;;;;;;6227059;28;20238;-52
2022/12/11 14:43:27;;;;;;;18.87;14.77;;;-0.30;1.00;;;;;;6227259;28;20232;-52
2022/12/11 14:46:36;;;;;;;17.07;13.90;;;-0.10;1.00;;;;;;6252548;28;20246;-52
2022/12/11 14:49:46;;;;;;;18.17;14.83;;;-0.20;1.00;;;;;;6257174;28;20604;-51
2022/12/11 14:52:52;;;;;;;20.40;14.17;;;-0.50;1.00;;;;;;6252571;28;20270;-52
2022/12/11 14:56:00;;;;;;;21.60;15.37;;;-0.60;1.00;;;;;;6257780;28;20583;-52
2022/12/11 14:59:08;;;;;;;19.93;14.77;;;-0.40;1.00;;;;;;6256839;28;20634;-52
2022/12/11 15:02:24;;;;;;;18.17;13.80;;;-0.40;1.00;;;;;;6256406;28;20234;-52
2022/12/11 15:05:28;;;;;;;17.80;14.30;;;-0.40;1.00;;;;;;6256454;28;20329;-52
2022/12/11 15:08:33;;;;;;;20.47;14.53;;;-0.30;1.00;;;;;;6256600;28;20245;-51
2022/12/11 15:11:37;;;;;;;18.80;14.97;;;-0.40;1.00;;;;;;6256178;28;20237;-52
2022/12/11 15:14:50;;;;;;;20.63;14.67;;;-0.40;1.00;;;;;;6257284;28;20706;-52
2022/12/11 15:17:53;;;;;;;17.97;14.10;;;-0.30;1.00;;;;;;6256601;28;20268;-52
2022/12/11 15:20:59;;;;;;;17.00;14.87;;;-0.20;1.00;;;;;;6255021;28;20230;-53
2022/12/11 15:24:04;;;;;;;20.27;14.70;;;-0.40;1.00;;;;;;6251432;28;20230;-53
2022/12/11 15:27:25;;;;;;;18.03;14.90;;;-0.40;1.00;;;;;;6256540;28;20245;-52
2022/12/11 15:30:33;;;;;;;17.57;14.97;;;-0.40;1.00;;;;;;6248890;28;20238;-52
2022/12/11 15:33:45;;;;;;;19.20;14.83;;;-0.40;1.00;;;;;;6258212;28;20268;-52
2022/12/11 15:36:48;;;;;;;18.33;14.43;;;-0.40;1.00;;;;;;6248204;28;20306;-52
2022/12/11 15:39:52;;;;;;;17.80;13.93;;;-0.40;1.00;;;;;;6244682;28;20237;-52
2022/12/11 15:42:57;;;;;;;17.47;13.80;;;-0.50;1.00;;;;;;6225221;28;20712;-52
2022/12/11 15:46:01;;;;;;;17.17;13.83;;;-0.50;1.00;;;;;;6226389;28;20803;-51
2022/12/11 15:49:12;;;;;;;15.97;13.30;;;-0.40;1.00;;;;;;6213590;28;20230;-54
2022/12/11 15:52:15;;;;;;;17.50;14.03;;;-0.20;1.00;;;;;;6224649;28;20467;-53
2022/12/11 15:55:19;;;;;;;18.87;14.23;;;-0.40;1.00;;;;;;6224369;28;20268;-52
2022/12/11 15:58:26;;;;;;;16.33;13.70;;;-0.20;1.00;;;;;;6225019;28;20238;-53
2022/12/11 16:01:29;;;;;;;20.23;14.97;;;-0.40;1.00;;;;;;6226022;28;20242;-52
2022/12/11 16:04:31;;;;;;;17.27;13.73;;;-0.50;1.00;;;;;;6228386;28;20292;-53